createdAt,value
2017-12-08T00:01:23.983Z,92.10
2017-12-08T00:03:52.262Z,92.20
2017-12-08T00:06:19.755Z,92.20
2017-12-08T00:08:47.269Z,92.50
2017-12-08T00:11:15.531Z,92.70
2017-12-08T00:13:43.835Z,92.90
2017-12-08T00:16:11.326Z,92.90
2017-12-08T00:18:38.851Z,93.00
2017-12-08T00:21:06.346Z,93.10
2017-12-08T00:23:33.834Z,93.40
2017-12-08T00:26:01.346Z,93.50
2017-12-08T00:28:28.839Z,93.70
2017-12-08T00:30:56.358Z,93.60
2017-12-08T00:33:23.860Z,93.80
2017-12-08T00:35:51.370Z,94.10
2017-12-08T00:38:18.870Z,94.10
2017-12-08T00:40:46.394Z,94.20
2017-12-08T00:43:13.890Z,94.30
2017-12-08T00:45:41.380Z,94.30
2017-12-08T00:48:09.679Z,94.20
2017-12-08T00:50:37.170Z,94.10
2017-12-08T00:53:04.687Z,94.90
2017-12-08T00:55:33.027Z,94.60
2017-12-08T00:58:00.543Z,94.20
2017-12-08T01:00:28.701Z,94.20
2017-12-08T01:02:56.227Z,94.10
2017-12-08T01:05:24.504Z,94.20
2017-12-08T01:07:52.786Z,94.40
2017-12-08T01:10:21.038Z,94.20
2017-12-08T01:12:48.534Z,94.20
2017-12-08T01:15:16.891Z,94.10
2017-12-08T01:17:44.406Z,94.10
2017-12-08T01:20:11.994Z,94.20
2017-12-08T01:22:39.566Z,94.10
2017-12-08T01:25:07.082Z,94.10
2017-12-08T01:27:34.571Z,94.10
2017-12-08T01:30:02.087Z,94.10
2017-12-08T01:32:29.578Z,94.20
2017-12-08T01:34:57.094Z,94.20
2017-12-08T01:37:24.600Z,94.10
2017-12-08T01:39:52.123Z,94.00
2017-12-08T01:42:19.859Z,94.10
2017-12-08T01:44:49.056Z,94.20
2017-12-08T01:47:17.358Z,94.00
2017-12-08T01:49:44.858Z,94.00
2017-12-08T01:52:12.370Z,94.00
2017-12-08T01:54:39.860Z,94.10
2017-12-08T01:57:07.370Z,94.00
2017-12-08T01:59:35.621Z,94.00
2017-12-08T02:02:03.167Z,94.00
2017-12-08T02:04:30.654Z,94.00
2017-12-08T02:06:58.939Z,93.90
2017-12-08T02:09:27.209Z,93.80
2017-12-08T02:11:55.462Z,93.60
2017-12-08T02:14:22.974Z,93.50
2017-12-08T02:16:50.466Z,93.60
2017-12-08T02:19:17.979Z,93.60
2017-12-08T02:21:45.474Z,93.60
2017-12-08T02:24:12.987Z,93.70
2017-12-08T02:26:41.246Z,93.80
2017-12-08T02:29:09.529Z,94.20
2017-12-08T02:31:37.786Z,94.20
2017-12-08T02:34:05.327Z,94.20
2017-12-08T02:36:32.834Z,94.40
2017-12-08T02:39:01.093Z,94.80
2017-12-08T02:41:29.379Z,95.00
2017-12-08T02:43:57.630Z,95.00
2017-12-08T02:46:26.003Z,95.00
2017-12-08T02:48:53.518Z,95.00
2017-12-08T02:51:21.030Z,95.20
2017-12-08T02:53:49.286Z,95.10
2017-12-08T02:56:16.817Z,95.50
2017-12-08T02:58:44.306Z,95.30
2017-12-08T03:01:11.799Z,95.30
2017-12-08T03:03:40.078Z,95.20
2017-12-08T03:06:08.370Z,95.30
2017-12-08T03:08:35.886Z,95.20
2017-12-08T03:11:03.379Z,95.50
2017-12-08T03:13:31.658Z,95.00
2017-12-08T03:15:59.150Z,95.00
2017-12-08T03:18:26.666Z,95.00
2017-12-08T03:20:54.922Z,95.00
2017-12-08T03:23:22.414Z,95.00
2017-12-08T03:25:49.930Z,95.00
2017-12-08T03:28:17.418Z,94.80
2017-12-08T03:30:45.695Z,94.80
2017-12-08T03:33:13.958Z,95.00
2017-12-08T03:35:41.473Z,95.00
2017-12-08T03:38:08.967Z,95.00
2017-12-08T03:40:36.483Z,95.00
2017-12-08T03:43:03.979Z,95.00
2017-12-08T03:45:33.269Z,94.90
2017-12-08T03:48:00.777Z,94.60
2017-12-08T03:50:28.310Z,94.70
2017-12-08T03:52:56.590Z,94.40
2017-12-08T03:55:24.848Z,94.80
2017-12-08T03:57:52.378Z,94.70
2017-12-08T04:00:19.870Z,95.30
2017-12-08T04:02:48.146Z,93.20
2017-12-08T04:05:15.638Z,93.20
2017-12-08T04:07:43.130Z,92.60
2017-12-08T04:10:10.637Z,92.90
2017-12-08T04:12:38.886Z,92.80
2017-12-08T04:15:06.394Z,92.70
2017-12-08T04:17:33.882Z,92.40
2017-12-08T04:20:01.391Z,92.60
2017-12-08T04:22:29.642Z,92.50
2017-12-08T04:24:57.164Z,92.50
2017-12-08T04:27:24.653Z,92.20
2017-12-08T04:29:52.163Z,92.40
2017-12-08T04:32:19.670Z,92.20
2017-12-08T04:34:47.197Z,92.30
2017-12-08T04:37:14.713Z,92.60
2017-12-08T04:39:42.966Z,91.50
2017-12-08T04:42:10.478Z,91.50
2017-12-08T04:44:37.966Z,91.90
2017-12-08T04:47:05.474Z,91.10
2017-12-08T04:49:33.726Z,91.60
2017-12-08T04:52:02.006Z,91.60
2017-12-08T04:54:29.502Z,91.70
2017-12-08T04:56:56.990Z,91.60
2017-12-08T04:59:24.503Z,91.60
2017-12-08T05:01:51.990Z,91.40
2017-12-08T05:04:19.498Z,91.60
2017-12-08T05:06:47.758Z,91.90
2017-12-08T05:09:15.267Z,91.90
2017-12-08T05:11:42.758Z,91.90
2017-12-08T05:14:10.269Z,91.80
2017-12-08T05:16:37.758Z,91.60
2017-12-08T05:19:05.246Z,91.40
2017-12-08T05:21:32.757Z,91.60
2017-12-08T05:24:00.246Z,91.40
2017-12-08T05:26:27.758Z,91.30
2017-12-08T05:28:55.266Z,91.50
2017-12-08T05:31:22.778Z,91.60
2017-12-08T05:33:50.266Z,91.50
2017-12-08T05:36:17.777Z,91.50
2017-12-08T05:38:46.030Z,91.50
2017-12-08T05:41:13.518Z,91.50
2017-12-08T05:43:41.793Z,91.80
2017-12-08T05:46:10.050Z,91.70
2017-12-08T05:48:37.565Z,91.70
2017-12-08T05:51:05.053Z,91.60
2017-12-08T05:53:32.566Z,91.80
2017-12-08T05:56:00.053Z,91.80
2017-12-08T05:58:27.570Z,91.90
2017-12-08T06:00:55.061Z,91.80
2017-12-08T06:03:22.573Z,91.90
2017-12-08T06:05:50.826Z,92.00
2017-12-08T06:08:18.323Z,92.00
2017-12-08T06:10:45.835Z,91.50
2017-12-08T06:13:13.322Z,91.80
2017-12-08T06:15:41.601Z,91.80
2017-12-08T06:18:09.854Z,91.70
2017-12-08T06:20:37.362Z,91.70
2017-12-08T06:23:04.851Z,91.60
2017-12-08T06:25:32.401Z,91.40
2017-12-08T06:27:59.896Z,91.60
2017-12-08T06:30:27.410Z,91.50
2017-12-08T06:32:54.898Z,91.60
2017-12-08T06:35:22.390Z,91.40
2017-12-08T06:37:50.672Z,91.10
2017-12-08T06:40:18.174Z,91.10
2017-12-08T06:42:45.703Z,91.30
2017-12-08T06:45:13.191Z,91.40
2017-12-08T06:47:40.708Z,91.10
2017-12-08T06:50:08.190Z,91.10
2017-12-08T06:52:35.702Z,91.00
2017-12-08T06:55:03.958Z,91.00
2017-12-08T06:57:31.490Z,91.00
2017-12-08T06:59:59.749Z,91.00
2017-12-08T07:02:27.234Z,91.00
2017-12-08T07:04:54.742Z,91.30
2017-12-08T07:07:22.994Z,91.50
2017-12-08T07:09:50.506Z,91.50
2017-12-08T07:12:17.994Z,91.30
2017-12-08T07:14:45.501Z,91.20
2017-12-08T07:17:12.996Z,91.40
2017-12-08T07:19:40.510Z,91.60
2017-12-08T07:22:08.771Z,91.30
2017-12-08T07:24:37.050Z,91.90
2017-12-08T07:27:05.305Z,91.40
2017-12-08T07:29:32.819Z,91.40
2017-12-08T07:32:00.328Z,91.40
2017-12-08T07:34:27.819Z,91.10
2017-12-08T07:36:55.334Z,91.00
2017-12-08T07:39:22.827Z,90.90
2017-12-08T07:41:51.106Z,90.50
2017-12-08T07:44:19.362Z,90.70
2017-12-08T07:46:46.877Z,90.70
2017-12-08T07:49:14.366Z,90.50
2017-12-08T07:51:41.882Z,90.60
2017-12-08T07:54:09.374Z,90.50
2017-12-08T07:56:36.885Z,90.40
2017-12-08T07:59:04.374Z,90.30
2017-12-08T08:01:31.867Z,90.10
2017-12-08T08:03:59.386Z,90.00
2017-12-08T08:06:26.925Z,89.40
2017-12-08T08:08:54.408Z,88.80
2017-12-08T08:11:21.898Z,89.70
2017-12-08T08:13:49.410Z,88.60
2017-12-08T08:16:16.898Z,88.10
2017-12-08T08:18:44.391Z,88.30
2017-12-08T08:21:13.112Z,87.10
2017-12-08T08:23:40.605Z,87.10
2017-12-08T08:26:08.114Z,86.10
2017-12-08T08:28:35.605Z,85.10
2017-12-08T08:31:03.114Z,83.80
2017-12-08T08:33:31.370Z,82.60
2017-12-08T08:35:59.648Z,79.40
2017-12-08T08:38:27.138Z,79.30
2017-12-08T08:40:54.632Z,76.60
2017-12-08T08:43:22.154Z,74.20
2017-12-08T08:45:49.642Z,71.40
2017-12-08T08:48:17.154Z,72.40
2017-12-08T08:50:45.410Z,72.40
2017-12-08T08:53:12.918Z,72.40
2017-12-08T08:55:40.415Z,70.10
2017-12-08T08:58:07.943Z,68.30
2017-12-08T09:00:35.434Z,66.00
2017-12-08T09:03:02.923Z,62.60
2017-12-08T09:05:31.234Z,58.30
2017-12-08T09:07:58.726Z,57.80
2017-12-08T09:10:26.239Z,56.50
2017-12-08T09:12:53.750Z,54.40
2017-12-08T09:15:21.276Z,55.80
2017-12-08T09:17:48.770Z,53.30
2017-12-08T09:20:16.286Z,52.50
2017-12-08T09:22:43.785Z,53.90
2017-12-08T09:25:11.338Z,53.10
2017-12-08T09:27:38.834Z,50.80
2017-12-08T09:30:06.338Z,52.00
2017-12-08T09:32:33.871Z,50.20
2017-12-08T09:35:01.378Z,50.50
2017-12-08T09:37:28.905Z,50.60
2017-12-08T09:39:56.400Z,50.20
2017-12-08T09:42:24.678Z,50.60
2017-12-08T09:44:52.166Z,50.60
2017-12-08T09:47:19.678Z,48.90
2017-12-08T09:49:47.170Z,49.00
2017-12-08T09:52:15.430Z,47.90
2017-12-08T09:54:42.942Z,47.90
2017-12-08T09:57:10.432Z,47.50
2017-12-08T09:59:37.945Z,47.80
2017-12-08T10:02:05.439Z,47.90
2017-12-08T10:04:32.950Z,47.40
2017-12-08T10:07:00.441Z,48.70
2017-12-08T10:09:27.949Z,48.10
2017-12-08T10:11:56.211Z,49.80
2017-12-08T10:14:23.725Z,49.80
2017-12-08T10:16:51.213Z,49.90
2017-12-08T10:19:18.706Z,50.20
2017-12-08T10:21:46.987Z,48.60
2017-12-08T10:24:14.493Z,48.50
2017-12-08T10:26:42.002Z,47.90
2017-12-08T10:29:10.257Z,47.90
2017-12-08T10:31:37.766Z,47.80
2017-12-08T10:34:05.257Z,47.70
2017-12-08T10:36:32.766Z,47.70
2017-12-08T10:39:00.261Z,47.20
2017-12-08T10:41:27.777Z,48.40
2017-12-08T10:43:55.315Z,48.50
2017-12-08T10:46:22.782Z,49.90
2017-12-08T10:48:51.069Z,53.30
2017-12-08T10:51:18.559Z,53.30
2017-12-08T10:53:46.070Z,53.60
2017-12-08T10:56:14.322Z,51.30
2017-12-08T10:58:41.830Z,51.20
2017-12-08T11:01:09.318Z,52.10
2017-12-08T11:03:36.832Z,52.90
2017-12-08T11:06:04.322Z,52.20
2017-12-08T11:08:31.829Z,51.40
2017-12-08T11:11:00.090Z,50.00
2017-12-08T11:13:27.580Z,49.90
2017-12-08T11:15:55.855Z,48.70
2017-12-08T11:18:24.114Z,48.50
2017-12-08T11:20:52.391Z,47.70
2017-12-08T11:23:20.645Z,48.40
2017-12-08T11:25:48.156Z,47.80
2017-12-08T11:28:15.646Z,46.50
2017-12-08T11:30:43.155Z,47.30
2017-12-08T11:33:11.410Z,50.20
2017-12-08T11:35:38.922Z,50.20
2017-12-08T11:38:06.426Z,50.10
2017-12-08T11:40:33.915Z,51.90
2017-12-08T11:43:01.485Z,51.50
2017-12-08T11:45:28.930Z,50.40
2017-12-08T11:47:56.438Z,49.90
2017-12-08T11:50:23.926Z,49.20
2017-12-08T11:52:52.213Z,50.80
2017-12-08T11:55:20.462Z,49.80
2017-12-08T11:57:47.974Z,49.80
2017-12-08T12:00:15.462Z,49.70
2017-12-08T12:02:42.956Z,50.20
2017-12-08T12:05:11.234Z,51.00
2017-12-08T12:07:39.481Z,52.10
2017-12-08T12:10:06.990Z,52.10
2017-12-08T12:12:34.478Z,52.50
2017-12-08T12:15:01.987Z,52.70
2017-12-08T12:17:30.245Z,53.60
2017-12-08T12:19:57.754Z,53.60
2017-12-08T12:22:25.242Z,54.90
2017-12-08T12:24:52.754Z,55.50
2017-12-08T12:27:20.237Z,55.30
2017-12-08T12:29:47.797Z,55.70
2017-12-08T12:32:15.262Z,56.30
2017-12-08T12:34:42.899Z,56.50
2017-12-08T12:37:10.411Z,55.30
2017-12-08T12:39:37.914Z,55.00
2017-12-08T12:42:05.421Z,55.70
2017-12-08T12:44:32.912Z,58.20
2017-12-08T12:47:01.186Z,64.50
2017-12-08T12:49:29.438Z,67.20
2017-12-08T12:51:56.947Z,67.10
2017-12-08T12:54:24.437Z,68.40
2017-12-08T12:56:51.950Z,68.40
2017-12-08T12:59:19.434Z,66.80
2017-12-08T13:01:46.926Z,67.10
2017-12-08T13:04:14.446Z,67.60
2017-12-08T13:06:41.938Z,68.10
2017-12-08T13:09:09.450Z,65.50
2017-12-08T13:11:36.938Z,66.20
2017-12-08T13:14:04.453Z,65.40
2017-12-08T13:16:32.706Z,64.20
2017-12-08T13:19:00.217Z,64.20
2017-12-08T13:21:27.706Z,63.10
2017-12-08T13:23:55.218Z,62.00
2017-12-08T13:26:22.702Z,62.70
2017-12-08T13:28:50.197Z,64.20
2017-12-08T13:31:18.477Z,67.00
2017-12-08T13:33:45.961Z,67.00
2017-12-08T13:36:13.474Z,67.90
2017-12-08T13:38:40.962Z,68.60
2017-12-08T13:41:09.234Z,68.30
2017-12-08T13:43:37.490Z,68.20
2017-12-08T13:46:04.997Z,68.20
2017-12-08T13:48:32.481Z,68.40
2017-12-08T13:50:59.994Z,68.90
2017-12-08T13:53:40.186Z,69.80
2017-12-08T13:56:19.650Z,68.90
2017-12-08T13:58:47.138Z,69.10
2017-12-08T14:01:15.393Z,69.20
2017-12-08T14:03:42.902Z,69.20
2017-12-08T14:06:10.390Z,68.40
2017-12-08T14:08:37.898Z,68.20
2017-12-08T14:11:06.154Z,68.00
2017-12-08T14:13:33.667Z,67.90
2017-12-08T14:16:01.155Z,67.60
2017-12-08T14:18:28.667Z,67.10
2017-12-08T14:20:56.153Z,67.70
2017-12-08T14:23:23.662Z,67.80
2017-12-08T14:25:51.917Z,68.90
2017-12-08T14:28:19.406Z,68.90
2017-12-08T14:30:46.917Z,69.00
2017-12-08T14:33:14.405Z,69.00
2017-12-08T14:35:42.676Z,69.40
2017-12-08T14:38:10.933Z,69.80
2017-12-08T14:40:38.441Z,69.80
2017-12-08T14:43:05.929Z,70.30
2017-12-08T14:45:33.435Z,70.20
2017-12-08T14:48:01.689Z,68.90
2017-12-08T14:50:29.198Z,68.70
2017-12-08T14:52:56.682Z,68.70
2017-12-08T14:55:24.194Z,68.60
2017-12-08T14:57:52.449Z,68.50
2017-12-08T15:00:19.938Z,68.40
2017-12-08T15:02:47.446Z,68.20
2017-12-08T15:05:14.926Z,68.90
2017-12-08T15:07:42.430Z,69.00
2017-12-08T15:10:09.917Z,68.70
2017-12-08T15:12:37.426Z,68.60
2017-12-08T15:15:04.914Z,68.70
2017-12-08T15:17:32.422Z,68.60
2017-12-08T15:20:00.678Z,69.20
2017-12-08T15:22:28.186Z,69.20
2017-12-08T15:24:55.689Z,69.20
2017-12-08T15:27:23.189Z,69.60
2017-12-08T15:29:50.669Z,69.70
2017-12-08T15:32:18.286Z,69.90
2017-12-08T15:34:46.541Z,71.40
2017-12-08T15:37:14.054Z,70.50
2017-12-08T15:39:41.557Z,70.60
2017-12-08T15:42:09.042Z,70.80
2017-12-08T15:44:37.313Z,70.80
2017-12-08T15:47:05.573Z,71.00
2017-12-08T15:49:33.074Z,70.90
2017-12-08T15:52:00.563Z,71.20
2017-12-08T15:54:28.074Z,71.20
2017-12-08T15:56:56.329Z,71.50
2017-12-08T15:59:23.834Z,71.30
2017-12-08T16:01:51.323Z,71.50
2017-12-08T16:04:18.834Z,71.50
2017-12-08T16:06:46.330Z,71.70
2017-12-08T16:09:13.842Z,71.80
2017-12-08T16:11:42.094Z,72.00
2017-12-08T16:14:09.582Z,71.90
2017-12-08T16:16:37.857Z,72.50
2017-12-08T16:19:06.113Z,72.60
2017-12-08T16:21:34.397Z,72.70
2017-12-08T16:24:02.646Z,72.70
2017-12-08T16:26:30.153Z,72.60
2017-12-08T16:28:57.651Z,72.70
2017-12-08T16:31:25.162Z,72.70
2017-12-08T16:33:53.410Z,73.00
2017-12-08T16:36:20.917Z,73.00
2017-12-08T16:38:48.410Z,73.80
2017-12-08T16:41:15.922Z,73.20
2017-12-08T16:43:43.403Z,73.20
2017-12-08T16:46:10.918Z,73.30
2017-12-08T16:48:39.175Z,73.50
2017-12-08T16:51:06.662Z,73.50
2017-12-08T16:53:34.934Z,73.70
2017-12-08T16:56:03.194Z,74.10
2017-12-08T16:58:31.475Z,74.70
2017-12-08T17:00:59.726Z,75.10
2017-12-08T17:03:27.238Z,74.30
2017-12-08T17:05:54.729Z,74.40
2017-12-08T17:08:22.233Z,76.40
2017-12-08T17:10:50.487Z,75.70
2017-12-08T17:13:17.995Z,75.70
2017-12-08T17:15:45.486Z,75.80
2017-12-08T17:18:12.970Z,76.30
2017-12-08T17:20:40.483Z,75.80
2017-12-08T17:23:07.979Z,76.70
2017-12-08T17:25:35.496Z,75.10
2017-12-08T17:28:02.977Z,74.90
2017-12-08T17:30:30.492Z,74.70
2017-12-08T17:32:57.973Z,74.60
2017-12-08T17:35:25.486Z,74.60
2017-12-08T17:37:53.741Z,74.30
2017-12-08T17:40:21.249Z,74.30
2017-12-08T17:42:48.734Z,74.10
2017-12-08T17:45:16.306Z,74.20
2017-12-08T17:47:43.749Z,74.60
2017-12-08T17:50:11.234Z,74.50
2017-12-08T17:52:38.742Z,74.70
2017-12-08T17:55:06.229Z,74.80
2017-12-08T17:57:33.742Z,75.00
2017-12-08T18:00:02.010Z,74.60
2017-12-08T18:02:30.283Z,74.80
2017-12-08T18:04:58.536Z,74.50
2017-12-08T18:07:26.812Z,74.40
2017-12-08T18:09:54.301Z,74.50
2017-12-08T18:12:22.577Z,74.50
2017-12-08T18:14:50.833Z,74.20
2017-12-08T18:17:18.323Z,74.10
2017-12-08T18:19:45.846Z,74.50
2017-12-08T18:22:13.341Z,74.60
2017-12-08T18:24:40.850Z,74.80
2017-12-08T18:27:08.333Z,75.40
2017-12-08T18:29:36.610Z,75.40
2017-12-08T18:32:04.863Z,75.60
2017-12-08T18:34:32.373Z,75.60
2017-12-08T18:36:59.854Z,75.50
2017-12-08T18:39:27.362Z,76.70
2017-12-08T18:41:55.614Z,82.80
2017-12-08T18:44:23.098Z,82.80
2017-12-08T18:46:51.378Z,87.80
2017-12-08T18:49:19.630Z,89.70
2017-12-08T18:51:47.138Z,89.70
2017-12-08T18:54:14.626Z,90.40
2017-12-08T18:56:42.138Z,90.80
2017-12-08T18:59:09.678Z,91.00
2017-12-08T19:01:37.974Z,91.80
2017-12-08T19:04:06.226Z,91.60
2017-12-08T19:06:33.733Z,91.60
2017-12-08T19:09:01.245Z,90.90
2017-12-08T19:11:28.750Z,90.10
2017-12-08T19:13:56.238Z,90.40
2017-12-08T19:16:23.722Z,89.70
2017-12-08T19:18:51.990Z,90.00
2017-12-08T19:21:19.478Z,89.90
2017-12-08T19:23:46.989Z,90.00
2017-12-08T19:26:14.473Z,90.20
2017-12-08T19:28:42.741Z,90.00
2017-12-08T19:31:10.229Z,90.00
2017-12-08T19:33:37.738Z,90.00
2017-12-08T19:36:05.226Z,90.40
2017-12-08T19:38:33.497Z,90.80
2017-12-08T19:41:01.753Z,91.10
2017-12-08T19:43:29.271Z,91.10
2017-12-08T19:45:56.757Z,91.20
2017-12-08T19:48:24.246Z,91.20
2017-12-08T19:50:52.529Z,91.40
2017-12-08T19:53:20.782Z,91.10
2017-12-08T19:55:48.298Z,91.10
2017-12-08T19:58:15.790Z,91.00
2017-12-08T20:00:43.297Z,90.40
2017-12-08T20:03:10.785Z,90.30
2017-12-08T20:05:38.293Z,91.10
2017-12-08T20:08:06.549Z,90.40
2017-12-08T20:10:34.059Z,90.40
2017-12-08T20:13:01.550Z,90.20
2017-12-08T20:15:29.042Z,90.00
2017-12-08T20:17:57.317Z,89.60
2017-12-08T20:20:25.572Z,89.70
2017-12-08T20:22:53.081Z,89.70
2017-12-08T20:25:20.566Z,87.30
2017-12-08T20:27:48.069Z,88.80
2017-12-08T20:30:16.326Z,89.60
2017-12-08T20:32:44.597Z,89.60
2017-12-08T20:35:12.077Z,89.60
2017-12-08T20:37:40.354Z,86.40
2017-12-08T20:40:08.615Z,86.80
2017-12-08T20:42:36.134Z,86.60
2017-12-08T20:45:03.627Z,85.60
2017-12-08T20:47:31.114Z,85.00
2017-12-08T20:49:59.421Z,84.30
2017-12-08T20:52:26.910Z,84.30
2017-12-08T20:54:54.417Z,83.50
2017-12-08T20:57:22.670Z,81.90
2017-12-08T20:59:50.173Z,81.90
2017-12-08T21:02:17.662Z,81.80
2017-12-08T21:04:45.164Z,82.10
2017-12-08T21:07:13.418Z,81.60
2017-12-08T21:09:40.929Z,81.60
2017-12-08T21:12:08.423Z,81.10
2017-12-08T21:14:35.910Z,80.70
2017-12-08T21:17:04.186Z,81.40
2017-12-08T21:19:32.438Z,80.80
2017-12-08T21:21:59.947Z,80.80
2017-12-08T21:24:27.433Z,81.20
2017-12-08T21:26:54.941Z,79.10
2017-12-08T21:29:23.193Z,80.00
2017-12-08T21:31:52.210Z,79.40
2017-12-08T21:34:20.476Z,80.10
2017-12-08T21:36:48.754Z,79.70
2017-12-08T21:39:17.009Z,79.10
2017-12-08T21:41:44.498Z,79.10
2017-12-08T21:44:12.769Z,78.60
2017-12-08T21:46:41.037Z,77.90
2017-12-08T21:49:09.286Z,78.70
2017-12-08T21:51:36.773Z,78.70
2017-12-08T21:54:05.054Z,78.20
2017-12-08T21:56:33.495Z,78.00
2017-12-08T21:59:01.044Z,78.00
2017-12-08T22:01:28.562Z,78.60
2017-12-08T22:03:56.684Z,77.90
2017-12-08T22:06:24.410Z,78.70
2017-12-08T22:08:52.390Z,78.70
2017-12-08T22:11:19.925Z,79.60
2017-12-08T22:13:48.230Z,79.90
2017-12-08T22:16:15.745Z,79.80
2017-12-08T22:18:44.146Z,80.70
2017-12-08T22:21:11.646Z,80.60
2017-12-08T22:23:39.444Z,80.50
2017-12-08T22:26:07.761Z,81.30
2017-12-08T22:28:35.258Z,81.30
2017-12-08T22:31:02.774Z,81.40
2017-12-08T22:33:30.292Z,81.70
2017-12-08T22:35:57.906Z,81.50
2017-12-08T22:38:25.413Z,81.20
2017-12-08T22:40:52.943Z,81.30
2017-12-08T22:43:20.575Z,81.90
2017-12-08T22:45:48.094Z,82.40
2017-12-08T22:48:15.933Z,82.00
2017-12-08T22:50:43.462Z,83.90
2017-12-08T22:53:10.978Z,83.90
2017-12-08T22:55:38.985Z,83.90
2017-12-08T22:58:06.490Z,83.40
2017-12-08T23:00:34.112Z,82.30
2017-12-08T23:03:01.857Z,80.90
2017-12-08T23:05:30.142Z,81.70
2017-12-08T23:07:57.670Z,81.70
2017-12-08T23:10:25.925Z,80.30
2017-12-08T23:12:53.429Z,80.20
2017-12-08T23:15:20.914Z,80.10
2017-12-08T23:17:48.417Z,79.80
2017-12-08T23:20:15.903Z,80.30
2017-12-08T23:22:43.410Z,79.40
2017-12-08T23:25:10.893Z,79.00
2017-12-08T23:27:38.406Z,78.70
2017-12-08T23:30:05.924Z,79.20
2017-12-08T23:32:34.173Z,79.80
2017-12-08T23:35:01.690Z,79.80
2017-12-08T23:37:29.173Z,79.90
2017-12-08T23:39:56.677Z,79.20
2017-12-08T23:42:24.938Z,79.90
2017-12-08T23:44:53.214Z,79.80
2017-12-08T23:47:20.698Z,79.60
2017-12-08T23:49:48.210Z,79.80
2017-12-08T23:52:15.702Z,80.20
2017-12-08T23:54:43.969Z,78.90
2017-12-08T23:57:11.474Z,78.90
2017-12-08T23:59:38.977Z,78.90
